This is the latest recevied weather packets stored in our database for station/object K0WXC-1. If no packets are shown the sender has not sent any weather packets the latest 10 day(s).
| Time | Temp. | Humidity | Pressure | Rain* | Wind** | Luminosity | Snow |
|---|---|---|---|---|---|---|---|
| 1777295009 | 15.56° C | 97% | 991.3 hPa | 5.84 mm | 0.89 m/s, 40° | - | - |
| 1777294948 | 15.56° C | 97% | 991.3 hPa | 5.84 mm | 0.89 m/s, 40° | - | - |
| 1777294889 | 15.56° C | 97% | 991.3 hPa | 5.84 mm | 0.89 m/s, 40° | - | - |
| 1777294828 | 15.56° C | 97% | 991.2 hPa | 5.84 mm | 2.68 m/s, 326° | - | - |
| 1777294768 | 15.56° C | 97% | 991.2 hPa | 5.84 mm | 2.68 m/s, 326° | - | - |
| 1777294708 | 15.56° C | 97% | 991.2 hPa | 5.84 mm | 2.68 m/s, 326° | - | - |
| 1777294649 | 15.56° C | 97% | 991.2 hPa | 5.84 mm | 2.68 m/s, 326° | - | - |
| 1777294588 | 15.56° C | 97% | 991.2 hPa | 5.84 mm | 2.68 m/s, 326° | - | - |
| 1777294528 | 15.56° C | 97% | 992.1 hPa | 9.4 mm | 1.79 m/s, 349° | - | - |
| 1777294468 | 15.56° C | 97% | 992.1 hPa | 9.4 mm | 1.79 m/s, 349° | - | - |
| 1777294408 | 15.56° C | 97% | 992.1 hPa | 9.4 mm | 1.79 m/s, 349° | - | - |
| 1777294348 | 15.56° C | 97% | 992.1 hPa | 9.4 mm | 1.79 m/s, 349° | - | - |
| 1777294288 | 15.56° C | 97% | 992.1 hPa | 9.4 mm | 1.79 m/s, 349° | - | - |
| 1777294228 | 15.56° C | 97% | 992.5 hPa | 7.62 mm | 2.24 m/s, 324° | - | - |
| 1777294168 | 15.56° C | 97% | 992.5 hPa | 7.62 mm | 2.24 m/s, 324° | - | - |
| 1777294108 | 15.56° C | 97% | 992.5 hPa | 7.62 mm | 2.24 m/s, 324° | - | - |
| 1777294048 | 15.56° C | 97% | 992.5 hPa | 7.62 mm | 2.24 m/s, 324° | - | - |
| 1777293988 | 15.56° C | 97% | 992.5 hPa | 7.62 mm | 2.24 m/s, 324° | - | - |
| 1777293928 | 15.56° C | 97% | 992.1 hPa | 7.11 mm | 1.79 m/s, 224° | - | - |
| 1777293868 | 15.56° C | 97% | 992.1 hPa | 7.11 mm | 1.79 m/s, 224° | - | - |
| 1777293808 | 15.56° C | 97% | 992.1 hPa | 7.11 mm | 1.79 m/s, 224° | - | - |
| 1777293748 | 15.56° C | 97% | 992.1 hPa | 7.11 mm | 1.79 m/s, 224° | - | - |
| 1777293689 | 15.56° C | 97% | 992.1 hPa | 7.11 mm | 1.79 m/s, 224° | - | - |
| 1777293628 | 15.56° C | 97% | 991.5 hPa | 8.89 mm | 0.89 m/s, 327° | - | - |
| 1777293568 | 15.56° C | 97% | 991.5 hPa | 8.89 mm | 0.89 m/s, 327° | - | - |
* Rain latest hour (hover to see other rain measurements)
** Current wind speed in m/s (hover to see current wind gust speed)